sensor_id;sensor_type;location;lat;lon;timestamp;P1;durP1;ratioP1;P2;durP2;ratioP2
70369;SDS011;57790;51.356;-2.906;2023-09-19T00:02:07;9.48;;;1.33;;
70369;SDS011;57790;51.356;-2.906;2023-09-19T00:05:08;9.13;;;1.23;;
70369;SDS011;57790;51.356;-2.906;2023-09-19T00:08:09;10.83;;;1.23;;
70369;SDS011;57790;51.356;-2.906;2023-09-19T00:11:09;10.73;;;1.40;;
70369;SDS011;57790;51.356;-2.906;2023-09-19T00:14:10;7.90;;;0.85;;
70369;SDS011;57790;51.356;-2.906;2023-09-19T00:17:14;10.15;;;1.17;;
70369;SDS011;57790;51.356;-2.906;2023-09-19T00:20:16;10.82;;;1.35;;
70369;SDS011;57790;51.356;-2.906;2023-09-19T00:23:17;11.35;;;1.58;;
70369;SDS011;57790;51.356;-2.906;2023-09-19T00:26:19;11.33;;;1.43;;
70369;SDS011;57790;51.356;-2.906;2023-09-19T00:29:21;7.93;;;1.13;;
70369;SDS011;57790;51.356;-2.906;2023-09-19T00:32:23;8.80;;;1.33;;
70369;SDS011;57790;51.356;-2.906;2023-09-19T00:35:23;7.43;;;1.13;;
70369;SDS011;57790;51.356;-2.906;2023-09-19T00:38:24;7.82;;;1.25;;
70369;SDS011;57790;51.356;-2.906;2023-09-19T00:41:26;8.70;;;0.90;;
70369;SDS011;57790;51.356;-2.906;2023-09-19T00:44:30;9.48;;;1.23;;
70369;SDS011;57790;51.356;-2.906;2023-09-19T00:47:30;8.83;;;1.00;;
70369;SDS011;57790;51.356;-2.906;2023-09-19T00:50:31;7.43;;;1.13;;
70369;SDS011;57790;51.356;-2.906;2023-09-19T00:53:32;7.65;;;1.13;;
70369;SDS011;57790;51.356;-2.906;2023-09-19T00:56:34;12.47;;;1.53;;
70369;SDS011;57790;51.356;-2.906;2023-09-19T00:59:34;9.07;;;1.20;;
70369;SDS011;57790;51.356;-2.906;2023-09-19T01:02:35;7.07;;;1.10;;
70369;SDS011;57790;51.356;-2.906;2023-09-19T01:05:36;7.53;;;1.00;;
70369;SDS011;57790;51.356;-2.906;2023-09-19T01:08:36;6.57;;;0.87;;
70369;SDS011;57790;51.356;-2.906;2023-09-19T01:11:43;11.57;;;1.27;;
70369;SDS011;57790;51.356;-2.906;2023-09-19T01:14:51;7.28;;;1.10;;
70369;SDS011;57790;51.356;-2.906;2023-09-19T01:21:28;7.13;;;1.00;;
70369;SDS011;57790;51.356;-2.906;2023-09-19T01:32:02;7.25;;;0.95;;
70369;SDS011;57790;51.356;-2.906;2023-09-19T01:35:06;7.30;;;1.00;;
70369;SDS011;57790;51.356;-2.906;2023-09-19T01:38:12;6.72;;;1.20;;
70369;SDS011;57790;51.356;-2.906;2023-09-19T01:41:13;8.97;;;1.20;;
70369;SDS011;57790;51.356;-2.906;2023-09-19T01:47:59;8.77;;;1.27;;
70369;SDS011;57790;51.356;-2.906;2023-09-19T01:51:14;6.80;;;1.05;;
70369;SDS011;57790;51.356;-2.906;2023-09-19T01:54:33;7.90;;;1.10;;
70369;SDS011;57790;51.356;-2.906;2023-09-19T01:57:42;6.47;;;0.80;;
70369;SDS011;57790;51.356;-2.906;2023-09-19T02:00:54;7.07;;;1.20;;
70369;SDS011;57790;51.356;-2.906;2023-09-19T02:03:58;9.25;;;1.25;;
70369;SDS011;57790;51.356;-2.906;2023-09-19T02:06:59;6.97;;;1.00;;
70369;SDS011;57790;51.356;-2.906;2023-09-19T02:10:01;6.72;;;0.98;;
70369;SDS011;57790;51.356;-2.906;2023-09-19T02:13:03;7.05;;;1.10;;
70369;SDS011;57790;51.356;-2.906;2023-09-19T02:16:04;8.40;;;1.00;;
70369;SDS011;57790;51.356;-2.906;2023-09-19T02:19:05;8.43;;;1.33;;
70369;SDS011;57790;51.356;-2.906;2023-09-19T02:22:06;8.75;;;1.00;;
70369;SDS011;57790;51.356;-2.906;2023-09-19T02:25:07;8.57;;;1.15;;
70369;SDS011;57790;51.356;-2.906;2023-09-19T02:28:08;4.57;;;0.70;;
70369;SDS011;57790;51.356;-2.906;2023-09-19T02:31:09;5.97;;;1.10;;
70369;SDS011;57790;51.356;-2.906;2023-09-19T02:34:10;8.13;;;1.10;;
70369;SDS011;57790;51.356;-2.906;2023-09-19T02:37:11;7.53;;;0.90;;
70369;SDS011;57790;51.356;-2.906;2023-09-19T02:40:13;8.27;;;1.00;;
70369;SDS011;57790;51.356;-2.906;2023-09-19T02:43:20;8.73;;;0.85;;
70369;SDS011;57790;51.356;-2.906;2023-09-19T02:46:21;7.10;;;1.27;;
70369;SDS011;57790;51.356;-2.906;2023-09-19T02:49:22;5.78;;;0.85;;
70369;SDS011;57790;51.356;-2.906;2023-09-19T02:52:22;8.90;;;1.33;;
70369;SDS011;57790;51.356;-2.906;2023-09-19T02:55:24;8.77;;;0.85;;
70369;SDS011;57790;51.356;-2.906;2023-09-19T02:58:25;10.13;;;1.20;;
70369;SDS011;57790;51.356;-2.906;2023-09-19T03:01:27;7.13;;;1.10;;
70369;SDS011;57790;51.356;-2.906;2023-09-19T03:04:28;5.17;;;0.83;;
70369;SDS011;57790;51.356;-2.906;2023-09-19T03:07:28;7.60;;;0.93;;
70369;SDS011;57790;51.356;-2.906;2023-09-19T03:10:29;8.73;;;1.07;;
70369;SDS011;57790;51.356;-2.906;2023-09-19T03:13:31;5.72;;;0.82;;
70369;SDS011;57790;51.356;-2.906;2023-09-19T03:16:32;8.73;;;0.90;;
70369;SDS011;57790;51.356;-2.906;2023-09-19T03:19:33;7.03;;;0.93;;
70369;SDS011;57790;51.356;-2.906;2023-09-19T03:22:33;8.33;;;0.80;;
70369;SDS011;57790;51.356;-2.906;2023-09-19T03:25:34;7.07;;;0.93;;
70369;SDS011;57790;51.356;-2.906;2023-09-19T03:28:36;6.32;;;0.80;;
70369;SDS011;57790;51.356;-2.906;2023-09-19T03:31:36;6.80;;;0.80;;
70369;SDS011;57790;51.356;-2.906;2023-09-19T03:34:37;6.20;;;1.03;;
70369;SDS011;57790;51.356;-2.906;2023-09-19T03:37:41;7.20;;;0.93;;
70369;SDS011;57790;51.356;-2.906;2023-09-19T03:40:43;7.75;;;0.80;;
70369;SDS011;57790;51.356;-2.906;2023-09-19T03:43:43;5.43;;;0.75;;
70369;SDS011;57790;51.356;-2.906;2023-09-19T03:46:44;8.07;;;1.33;;
70369;SDS011;57790;51.356;-2.906;2023-09-19T03:49:44;7.40;;;1.20;;
70369;SDS011;57790;51.356;-2.906;2023-09-19T03:52:45;4.33;;;0.70;;
70369;SDS011;57790;51.356;-2.906;2023-09-19T03:55:45;7.40;;;0.90;;
70369;SDS011;57790;51.356;-2.906;2023-09-19T03:58:46;8.37;;;1.33;;
70369;SDS011;57790;51.356;-2.906;2023-09-19T04:01:46;7.27;;;0.90;;
70369;SDS011;57790;51.356;-2.906;2023-09-19T04:04:47;6.85;;;0.80;;
70369;SDS011;57790;51.356;-2.906;2023-09-19T04:07:48;5.80;;;0.77;;
70369;SDS011;57790;51.356;-2.906;2023-09-19T04:10:50;7.72;;;0.90;;
70369;SDS011;57790;51.356;-2.906;2023-09-19T04:13:51;5.60;;;0.60;;
70369;SDS011;57790;51.356;-2.906;2023-09-19T04:16:51;5.37;;;0.80;;
70369;SDS011;57790;51.356;-2.906;2023-09-19T04:19:52;4.43;;;0.50;;
70369;SDS011;57790;51.356;-2.906;2023-09-19T04:22:53;4.95;;;0.70;;
70369;SDS011;57790;51.356;-2.906;2023-09-19T04:25:54;4.07;;;0.68;;
70369;SDS011;57790;51.356;-2.906;2023-09-19T04:28:55;6.30;;;0.70;;
70369;SDS011;57790;51.356;-2.906;2023-09-19T04:31:56;4.97;;;0.63;;
70369;SDS011;57790;51.356;-2.906;2023-09-19T04:34:59;4.07;;;0.52;;
70369;SDS011;57790;51.356;-2.906;2023-09-19T04:38:02;4.93;;;0.50;;
70369;SDS011;57790;51.356;-2.906;2023-09-19T04:41:03;5.70;;;0.60;;
70369;SDS011;57790;51.356;-2.906;2023-09-19T04:44:04;4.33;;;0.63;;
70369;SDS011;57790;51.356;-2.906;2023-09-19T04:47:05;4.82;;;0.60;;
70369;SDS011;57790;51.356;-2.906;2023-09-19T04:50:07;4.07;;;0.88;;
70369;SDS011;57790;51.356;-2.906;2023-09-19T04:53:11;7.07;;;0.73;;
70369;SDS011;57790;51.356;-2.906;2023-09-19T04:56:12;3.27;;;0.50;;
70369;SDS011;57790;51.356;-2.906;2023-09-19T04:59:13;6.60;;;0.60;;
70369;SDS011;57790;51.356;-2.906;2023-09-19T05:02:15;4.28;;;0.57;;
70369;SDS011;57790;51.356;-2.906;2023-09-19T05:05:15;3.40;;;0.60;;
70369;SDS011;57790;51.356;-2.906;2023-09-19T05:08:19;3.67;;;0.80;;
70369;SDS011;57790;51.356;-2.906;2023-09-19T05:11:19;3.37;;;0.40;;
70369;SDS011;57790;51.356;-2.906;2023-09-19T05:14:24;3.72;;;0.55;;
70369;SDS011;57790;51.356;-2.906;2023-09-19T05:17:24;4.97;;;0.70;;
70369;SDS011;57790;51.356;-2.906;2023-09-19T05:20:25;5.47;;;0.65;;
70369;SDS011;57790;51.356;-2.906;2023-09-19T05:23:37;3.37;;;0.60;;
70369;SDS011;57790;51.356;-2.906;2023-09-19T05:26:38;3.55;;;0.55;;
70369;SDS011;57790;51.356;-2.906;2023-09-19T05:29:38;4.30;;;0.50;;
70369;SDS011;57790;51.356;-2.906;2023-09-19T05:32:40;5.00;;;0.60;;
70369;SDS011;57790;51.356;-2.906;2023-09-19T05:35:41;5.90;;;0.80;;
70369;SDS011;57790;51.356;-2.906;2023-09-19T05:38:42;5.10;;;1.10;;
70369;SDS011;57790;51.356;-2.906;2023-09-19T05:41:42;4.78;;;0.80;;
70369;SDS011;57790;51.356;-2.906;2023-09-19T05:44:42;5.27;;;0.80;;
70369;SDS011;57790;51.356;-2.906;2023-09-19T05:47:43;4.73;;;0.80;;
70369;SDS011;57790;51.356;-2.906;2023-09-19T05:51:00;5.57;;;0.88;;
70369;SDS011;57790;51.356;-2.906;2023-09-19T05:54:01;6.88;;;1.10;;
70369;SDS011;57790;51.356;-2.906;2023-09-19T05:57:01;7.37;;;1.13;;
70369;SDS011;57790;51.356;-2.906;2023-09-19T06:00:02;8.50;;;1.57;;
70369;SDS011;57790;51.356;-2.906;2023-09-19T06:03:08;9.02;;;1.75;;
70369;SDS011;57790;51.356;-2.906;2023-09-19T06:06:09;10.10;;;1.50;;
70369;SDS011;57790;51.356;-2.906;2023-09-19T06:09:10;9.60;;;1.40;;
70369;SDS011;57790;51.356;-2.906;2023-09-19T06:12:10;8.03;;;1.40;;
70369;SDS011;57790;51.356;-2.906;2023-09-19T06:15:13;8.63;;;1.42;;
70369;SDS011;57790;51.356;-2.906;2023-09-19T06:18:18;6.82;;;1.23;;
70369;SDS011;57790;51.356;-2.906;2023-09-19T06:21:28;8.60;;;1.50;;
70369;SDS011;57790;51.356;-2.906;2023-09-19T06:24:29;9.77;;;1.85;;
70369;SDS011;57790;51.356;-2.906;2023-09-19T06:27:30;11.70;;;1.80;;
70369;SDS011;57790;51.356;-2.906;2023-09-19T06:30:31;9.53;;;1.33;;
70369;SDS011;57790;51.356;-2.906;2023-09-19T06:33:32;9.20;;;1.58;;
70369;SDS011;57790;51.356;-2.906;2023-09-19T06:36:32;7.93;;;1.50;;
70369;SDS011;57790;51.356;-2.906;2023-09-19T06:39:33;9.37;;;1.70;;
70369;SDS011;57790;51.356;-2.906;2023-09-19T06:42:33;8.68;;;1.70;;
70369;SDS011;57790;51.356;-2.906;2023-09-19T06:45:33;9.43;;;1.77;;
70369;SDS011;57790;51.356;-2.906;2023-09-19T06:48:34;9.73;;;2.07;;
70369;SDS011;57790;51.356;-2.906;2023-09-19T06:51:34;8.20;;;1.60;;
70369;SDS011;57790;51.356;-2.906;2023-09-19T06:54:36;13.80;;;2.35;;
70369;SDS011;57790;51.356;-2.906;2023-09-19T06:57:37;12.27;;;2.00;;
70369;SDS011;57790;51.356;-2.906;2023-09-19T07:00:37;13.00;;;1.80;;
70369;SDS011;57790;51.356;-2.906;2023-09-19T07:03:38;11.15;;;1.75;;
70369;SDS011;57790;51.356;-2.906;2023-09-19T07:06:40;8.97;;;1.70;;
70369;SDS011;57790;51.356;-2.906;2023-09-19T07:09:40;10.43;;;1.70;;
70369;SDS011;57790;51.356;-2.906;2023-09-19T07:12:42;12.07;;;1.80;;
70369;SDS011;57790;51.356;-2.906;2023-09-19T07:15:43;11.82;;;1.77;;
70369;SDS011;57790;51.356;-2.906;2023-09-19T07:18:47;13.15;;;1.80;;
70369;SDS011;57790;51.356;-2.906;2023-09-19T07:21:47;8.47;;;1.43;;
70369;SDS011;57790;51.356;-2.906;2023-09-19T07:24:50;10.52;;;2.15;;
70369;SDS011;57790;51.356;-2.906;2023-09-19T07:27:50;11.20;;;2.03;;
70369;SDS011;57790;51.356;-2.906;2023-09-19T07:30:51;9.82;;;1.90;;
70369;SDS011;57790;51.356;-2.906;2023-09-19T07:33:52;11.87;;;1.90;;
70369;SDS011;57790;51.356;-2.906;2023-09-19T07:36:53;14.80;;;2.08;;
70369;SDS011;57790;51.356;-2.906;2023-09-19T07:39:53;10.73;;;2.00;;
70369;SDS011;57790;51.356;-2.906;2023-09-19T07:42:55;12.10;;;2.13;;
70369;SDS011;57790;51.356;-2.906;2023-09-19T07:45:55;8.45;;;1.90;;
70369;SDS011;57790;51.356;-2.906;2023-09-19T07:48:56;12.33;;;2.07;;
70369;SDS011;57790;51.356;-2.906;2023-09-19T07:51:57;11.68;;;1.75;;
70369;SDS011;57790;51.356;-2.906;2023-09-19T07:54:59;10.20;;;2.15;;
70369;SDS011;57790;51.356;-2.906;2023-09-19T07:58:01;9.75;;;1.85;;
70369;SDS011;57790;51.356;-2.906;2023-09-19T08:01:07;10.60;;;2.00;;
70369;SDS011;57790;51.356;-2.906;2023-09-19T08:04:09;9.70;;;1.65;;
70369;SDS011;57790;51.356;-2.906;2023-09-19T08:07:09;9.50;;;1.70;;
70369;SDS011;57790;51.356;-2.906;2023-09-19T08:10:11;12.95;;;1.90;;
70369;SDS011;57790;51.356;-2.906;2023-09-19T08:13:15;9.43;;;1.45;;
70369;SDS011;57790;51.356;-2.906;2023-09-19T08:16:17;10.63;;;1.38;;
70369;SDS011;57790;51.356;-2.906;2023-09-19T08:19:19;8.53;;;1.50;;
70369;SDS011;57790;51.356;-2.906;2023-09-19T08:22:23;9.13;;;1.95;;
70369;SDS011;57790;51.356;-2.906;2023-09-19T08:25:24;6.82;;;1.38;;
70369;SDS011;57790;51.356;-2.906;2023-09-19T08:28:26;10.75;;;1.70;;
70369;SDS011;57790;51.356;-2.906;2023-09-19T08:31:29;6.70;;;1.13;;
70369;SDS011;57790;51.356;-2.906;2023-09-19T08:34:30;9.40;;;1.88;;
70369;SDS011;57790;51.356;-2.906;2023-09-19T08:37:32;9.75;;;1.83;;
70369;SDS011;57790;51.356;-2.906;2023-09-19T08:40:37;9.30;;;1.60;;
70369;SDS011;57790;51.356;-2.906;2023-09-19T08:43:40;7.60;;;1.43;;
70369;SDS011;57790;51.356;-2.906;2023-09-19T08:46:41;5.18;;;1.33;;
70369;SDS011;57790;51.356;-2.906;2023-09-19T08:49:53;10.67;;;1.17;;
70369;SDS011;57790;51.356;-2.906;2023-09-19T08:53:06;6.18;;;1.33;;
70369;SDS011;57790;51.356;-2.906;2023-09-19T08:56:13;7.65;;;1.58;;
70369;SDS011;57790;51.356;-2.906;2023-09-19T08:59:15;5.68;;;1.20;;
70369;SDS011;57790;51.356;-2.906;2023-09-19T09:02:24;9.77;;;1.23;;
70369;SDS011;57790;51.356;-2.906;2023-09-19T09:05:25;7.43;;;1.20;;
70369;SDS011;57790;51.356;-2.906;2023-09-19T09:08:27;6.80;;;1.23;;
70369;SDS011;57790;51.356;-2.906;2023-09-19T09:11:33;7.88;;;1.30;;
70369;SDS011;57790;51.356;-2.906;2023-09-19T09:14:34;8.63;;;1.20;;
70369;SDS011;57790;51.356;-2.906;2023-09-19T09:17:34;6.47;;;1.17;;
70369;SDS011;57790;51.356;-2.906;2023-09-19T09:20:35;6.37;;;1.00;;
70369;SDS011;57790;51.356;-2.906;2023-09-19T09:23:36;9.50;;;1.30;;
70369;SDS011;57790;51.356;-2.906;2023-09-19T09:29:43;7.13;;;1.13;;
70369;SDS011;57790;51.356;-2.906;2023-09-19T09:32:47;7.22;;;1.00;;
70369;SDS011;57790;51.356;-2.906;2023-09-19T09:35:48;6.65;;;1.13;;
70369;SDS011;57790;51.356;-2.906;2023-09-19T09:39:00;5.23;;;1.00;;
70369;SDS011;57790;51.356;-2.906;2023-09-19T09:42:28;5.80;;;0.85;;
70369;SDS011;57790;51.356;-2.906;2023-09-19T09:45:33;5.95;;;0.93;;
70369;SDS011;57790;51.356;-2.906;2023-09-19T09:48:33;4.20;;;0.80;;
70369;SDS011;57790;51.356;-2.906;2023-09-19T09:52:01;8.35;;;1.17;;
70369;SDS011;57790;51.356;-2.906;2023-09-19T09:54:59;4.65;;;0.63;;
70369;SDS011;57790;51.356;-2.906;2023-09-19T09:58:16;4.68;;;0.70;;
70369;SDS011;57790;51.356;-2.906;2023-09-19T10:01:17;4.13;;;0.70;;
70369;SDS011;57790;51.356;-2.906;2023-09-19T10:04:27;6.15;;;0.77;;
70369;SDS011;57790;51.356;-2.906;2023-09-19T10:07:36;2.88;;;0.60;;
70369;SDS011;57790;51.356;-2.906;2023-09-19T10:10:41;3.63;;;0.70;;
70369;SDS011;57790;51.356;-2.906;2023-09-19T10:13:41;4.57;;;0.65;;
70369;SDS011;57790;51.356;-2.906;2023-09-19T10:16:45;4.37;;;0.70;;
70369;SDS011;57790;51.356;-2.906;2023-09-19T10:19:52;3.65;;;0.60;;
70369;SDS011;57790;51.356;-2.906;2023-09-19T10:22:57;2.55;;;0.60;;
70369;SDS011;57790;51.356;-2.906;2023-09-19T10:25:58;3.88;;;0.60;;
70369;SDS011;57790;51.356;-2.906;2023-09-19T10:29:01;2.72;;;0.77;;
70369;SDS011;57790;51.356;-2.906;2023-09-19T10:32:07;1.43;;;0.40;;
70369;SDS011;57790;51.356;-2.906;2023-09-19T10:35:09;2.13;;;0.40;;
70369;SDS011;57790;51.356;-2.906;2023-09-19T10:38:14;1.65;;;0.40;;
70369;SDS011;57790;51.356;-2.906;2023-09-19T10:41:17;2.58;;;0.40;;
70369;SDS011;57790;51.356;-2.906;2023-09-19T10:44:24;1.33;;;0.40;;
70369;SDS011;57790;51.356;-2.906;2023-09-19T10:47:26;2.77;;;0.50;;
70369;SDS011;57790;51.356;-2.906;2023-09-19T10:50:27;1.85;;;0.60;;
70369;SDS011;57790;51.356;-2.906;2023-09-19T10:57:13;2.70;;;0.60;;
70369;SDS011;57790;51.356;-2.906;2023-09-19T11:00:21;2.47;;;0.40;;
70369;SDS011;57790;51.356;-2.906;2023-09-19T11:03:27;1.83;;;0.60;;
70369;SDS011;57790;51.356;-2.906;2023-09-19T11:06:31;1.90;;;0.60;;
70369;SDS011;57790;51.356;-2.906;2023-09-19T11:09:55;2.63;;;0.40;;
70369;SDS011;57790;51.356;-2.906;2023-09-19T11:12:57;3.80;;;0.70;;
70369;SDS011;57790;51.356;-2.906;2023-09-19T11:18:58;3.47;;;0.60;;
70369;SDS011;57790;51.356;-2.906;2023-09-19T11:22:01;2.08;;;0.50;;
70369;SDS011;57790;51.356;-2.906;2023-09-19T11:25:34;2.33;;;0.50;;
70369;SDS011;57790;51.356;-2.906;2023-09-19T11:28:31;2.60;;;0.60;;
70369;SDS011;57790;51.356;-2.906;2023-09-19T11:31:42;2.97;;;0.50;;
70369;SDS011;57790;51.356;-2.906;2023-09-19T11:34:44;5.00;;;0.70;;
70369;SDS011;57790;51.356;-2.906;2023-09-19T11:40:47;4.43;;;0.70;;
70369;SDS011;57790;51.356;-2.906;2023-09-19T11:47:10;4.05;;;0.70;;
70369;SDS011;57790;51.356;-2.906;2023-09-19T11:50:10;5.63;;;1.10;;
70369;SDS011;57790;51.356;-2.906;2023-09-19T11:53:12;5.53;;;0.80;;
70369;SDS011;57790;51.356;-2.906;2023-09-19T11:56:13;5.90;;;0.80;;
70369;SDS011;57790;51.356;-2.906;2023-09-19T11:59:19;5.73;;;0.90;;
70369;SDS011;57790;51.356;-2.906;2023-09-19T12:02:36;5.70;;;1.13;;
70369;SDS011;57790;51.356;-2.906;2023-09-19T12:05:42;6.50;;;1.15;;
70369;SDS011;57790;51.356;-2.906;2023-09-19T12:08:43;4.38;;;0.80;;
70369;SDS011;57790;51.356;-2.906;2023-09-19T12:11:46;6.28;;;1.52;;
70369;SDS011;57790;51.356;-2.906;2023-09-19T12:14:50;6.63;;;1.13;;
70369;SDS011;57790;51.356;-2.906;2023-09-19T12:17:50;6.20;;;0.90;;
70369;SDS011;57790;51.356;-2.906;2023-09-19T12:20:51;4.43;;;0.93;;
70369;SDS011;57790;51.356;-2.906;2023-09-19T12:27:05;5.85;;;0.88;;
70369;SDS011;57790;51.356;-2.906;2023-09-19T12:30:06;4.35;;;0.90;;
70369;SDS011;57790;51.356;-2.906;2023-09-19T12:33:17;4.85;;;1.00;;
70369;SDS011;57790;51.356;-2.906;2023-09-19T12:36:20;3.43;;;0.70;;
70369;SDS011;57790;51.356;-2.906;2023-09-19T12:39:28;4.10;;;0.77;;
70369;SDS011;57790;51.356;-2.906;2023-09-19T12:42:29;3.80;;;0.63;;
70369;SDS011;57790;51.356;-2.906;2023-09-19T12:45:33;4.32;;;0.60;;
70369;SDS011;57790;51.356;-2.906;2023-09-19T12:48:37;2.90;;;0.57;;
70369;SDS011;57790;51.356;-2.906;2023-09-19T12:51:44;3.97;;;0.70;;
70369;SDS011;57790;51.356;-2.906;2023-09-19T12:54:46;4.45;;;0.80;;
70369;SDS011;57790;51.356;-2.906;2023-09-19T12:58:02;4.63;;;0.70;;
70369;SDS011;57790;51.356;-2.906;2023-09-19T13:01:15;5.38;;;0.75;;
70369;SDS011;57790;51.356;-2.906;2023-09-19T13:04:17;7.60;;;0.90;;
70369;SDS011;57790;51.356;-2.906;2023-09-19T13:11:06;6.10;;;1.00;;
70369;SDS011;57790;51.356;-2.906;2023-09-19T13:14:26;9.35;;;1.50;;
70369;SDS011;57790;51.356;-2.906;2023-09-19T13:17:42;10.05;;;1.20;;
70369;SDS011;57790;51.356;-2.906;2023-09-19T13:20:43;10.95;;;1.33;;
70369;SDS011;57790;51.356;-2.906;2023-09-19T13:24:23;11.10;;;1.30;;
70369;SDS011;57790;51.356;-2.906;2023-09-19T13:27:28;13.77;;;1.30;;
70369;SDS011;57790;51.356;-2.906;2023-09-19T13:30:32;10.18;;;1.63;;
70369;SDS011;57790;51.356;-2.906;2023-09-19T13:33:45;8.68;;;1.48;;
70369;SDS011;57790;51.356;-2.906;2023-09-19T13:36:48;8.25;;;1.33;;
70369;SDS011;57790;51.356;-2.906;2023-09-19T13:39:49;10.07;;;1.43;;
70369;SDS011;57790;51.356;-2.906;2023-09-19T13:42:49;8.50;;;1.57;;
70369;SDS011;57790;51.356;-2.906;2023-09-19T13:45:53;8.52;;;1.38;;
70369;SDS011;57790;51.356;-2.906;2023-09-19T13:48:54;8.43;;;1.40;;
70369;SDS011;57790;51.356;-2.906;2023-09-19T13:51:59;10.02;;;1.55;;
70369;SDS011;57790;51.356;-2.906;2023-09-19T13:55:03;6.63;;;1.17;;
70369;SDS011;57790;51.356;-2.906;2023-09-19T13:58:05;9.10;;;1.30;;
70369;SDS011;57790;51.356;-2.906;2023-09-19T14:01:06;8.85;;;1.40;;
70369;SDS011;57790;51.356;-2.906;2023-09-19T14:04:12;11.43;;;1.45;;
70369;SDS011;57790;51.356;-2.906;2023-09-19T14:07:13;9.90;;;1.55;;
70369;SDS011;57790;51.356;-2.906;2023-09-19T14:10:15;6.37;;;0.97;;
70369;SDS011;57790;51.356;-2.906;2023-09-19T14:13:15;7.57;;;1.10;;
70369;SDS011;57790;51.356;-2.906;2023-09-19T14:16:16;8.47;;;1.20;;
70369;SDS011;57790;51.356;-2.906;2023-09-19T14:19:18;7.93;;;1.15;;
70369;SDS011;57790;51.356;-2.906;2023-09-19T14:22:18;4.93;;;0.97;;
70369;SDS011;57790;51.356;-2.906;2023-09-19T14:25:18;5.20;;;0.90;;
70369;SDS011;57790;51.356;-2.906;2023-09-19T14:28:19;5.67;;;1.20;;
70369;SDS011;57790;51.356;-2.906;2023-09-19T14:31:19;3.67;;;0.60;;
70369;SDS011;57790;51.356;-2.906;2023-09-19T14:34:20;5.43;;;0.80;;
70369;SDS011;57790;51.356;-2.906;2023-09-19T14:37:20;3.37;;;0.63;;
70369;SDS011;57790;51.356;-2.906;2023-09-19T14:40:25;6.72;;;0.82;;
70369;SDS011;57790;51.356;-2.906;2023-09-19T14:43:26;6.07;;;1.10;;
70369;SDS011;57790;51.356;-2.906;2023-09-19T14:46:30;4.50;;;0.90;;
70369;SDS011;57790;51.356;-2.906;2023-09-19T14:49:33;7.67;;;0.90;;
70369;SDS011;57790;51.356;-2.906;2023-09-19T14:52:33;6.65;;;0.90;;
70369;SDS011;57790;51.356;-2.906;2023-09-19T14:55:36;6.32;;;1.15;;
70369;SDS011;57790;51.356;-2.906;2023-09-19T14:58:41;5.10;;;0.80;;
70369;SDS011;57790;51.356;-2.906;2023-09-19T15:01:41;4.38;;;0.80;;
70369;SDS011;57790;51.356;-2.906;2023-09-19T15:04:43;3.60;;;0.70;;
70369;SDS011;57790;51.356;-2.906;2023-09-19T15:07:47;5.77;;;0.83;;
70369;SDS011;57790;51.356;-2.906;2023-09-19T15:10:50;6.35;;;0.90;;
70369;SDS011;57790;51.356;-2.906;2023-09-19T15:13:52;4.57;;;0.77;;
70369;SDS011;57790;51.356;-2.906;2023-09-19T15:16:56;7.50;;;1.05;;
70369;SDS011;57790;51.356;-2.906;2023-09-19T15:19:57;4.97;;;0.73;;
70369;SDS011;57790;51.356;-2.906;2023-09-19T15:22:57;7.93;;;1.00;;
70369;SDS011;57790;51.356;-2.906;2023-09-19T15:25:58;7.47;;;1.20;;
70369;SDS011;57790;51.356;-2.906;2023-09-19T15:28:58;7.77;;;1.20;;
70369;SDS011;57790;51.356;-2.906;2023-09-19T15:32:00;9.18;;;1.20;;
70369;SDS011;57790;51.356;-2.906;2023-09-19T15:35:02;8.57;;;1.20;;
70369;SDS011;57790;51.356;-2.906;2023-09-19T15:38:03;7.53;;;1.13;;
70369;SDS011;57790;51.356;-2.906;2023-09-19T15:41:04;6.15;;;1.00;;
70369;SDS011;57790;51.356;-2.906;2023-09-19T15:44:10;8.43;;;1.15;;
70369;SDS011;57790;51.356;-2.906;2023-09-19T15:47:12;6.87;;;0.80;;
70369;SDS011;57790;51.356;-2.906;2023-09-19T15:50:13;6.78;;;0.90;;
70369;SDS011;57790;51.356;-2.906;2023-09-19T15:53:15;5.85;;;1.00;;
70369;SDS011;57790;51.356;-2.906;2023-09-19T15:56:17;9.35;;;1.30;;
70369;SDS011;57790;51.356;-2.906;2023-09-19T15:59:18;10.32;;;1.40;;
70369;SDS011;57790;51.356;-2.906;2023-09-19T16:02:18;7.00;;;0.70;;
70369;SDS011;57790;51.356;-2.906;2023-09-19T16:05:18;5.23;;;0.80;;
70369;SDS011;57790;51.356;-2.906;2023-09-19T16:08:19;5.90;;;1.33;;
70369;SDS011;57790;51.356;-2.906;2023-09-19T16:11:19;6.27;;;0.93;;
70369;SDS011;57790;51.356;-2.906;2023-09-19T16:14:20;6.43;;;1.00;;
70369;SDS011;57790;51.356;-2.906;2023-09-19T16:17:20;7.10;;;1.13;;
70369;SDS011;57790;51.356;-2.906;2023-09-19T16:20:21;6.50;;;0.90;;
70369;SDS011;57790;51.356;-2.906;2023-09-19T16:23:23;8.25;;;0.95;;
70369;SDS011;57790;51.356;-2.906;2023-09-19T16:26:23;6.17;;;1.03;;
70369;SDS011;57790;51.356;-2.906;2023-09-19T16:29:25;8.43;;;1.13;;
70369;SDS011;57790;51.356;-2.906;2023-09-19T16:32:25;8.20;;;1.00;;
70369;SDS011;57790;51.356;-2.906;2023-09-19T16:35:26;7.60;;;1.00;;
70369;SDS011;57790;51.356;-2.906;2023-09-19T16:38:26;8.57;;;1.50;;
70369;SDS011;57790;51.356;-2.906;2023-09-19T16:41:27;7.20;;;1.10;;
70369;SDS011;57790;51.356;-2.906;2023-09-19T16:44:27;7.63;;;1.23;;
70369;SDS011;57790;51.356;-2.906;2023-09-19T16:47:29;9.17;;;1.20;;
70369;SDS011;57790;51.356;-2.906;2023-09-19T16:50:31;9.67;;;1.50;;
70369;SDS011;57790;51.356;-2.906;2023-09-19T16:53:34;9.32;;;1.30;;
70369;SDS011;57790;51.356;-2.906;2023-09-19T16:56:38;8.88;;;1.50;;
70369;SDS011;57790;51.356;-2.906;2023-09-19T16:59:39;6.20;;;1.20;;
70369;SDS011;57790;51.356;-2.906;2023-09-19T17:02:40;9.27;;;1.67;;
70369;SDS011;57790;51.356;-2.906;2023-09-19T17:05:40;9.67;;;1.50;;
70369;SDS011;57790;51.356;-2.906;2023-09-19T17:08:41;8.67;;;1.60;;
70369;SDS011;57790;51.356;-2.906;2023-09-19T17:11:45;8.43;;;1.60;;
70369;SDS011;57790;51.356;-2.906;2023-09-19T17:14:46;10.87;;;2.00;;
70369;SDS011;57790;51.356;-2.906;2023-09-19T17:17:46;6.80;;;1.33;;
70369;SDS011;57790;51.356;-2.906;2023-09-19T17:20:47;6.17;;;1.10;;
70369;SDS011;57790;51.356;-2.906;2023-09-19T17:23:47;5.80;;;1.00;;
70369;SDS011;57790;51.356;-2.906;2023-09-19T17:26:48;7.95;;;1.40;;
70369;SDS011;57790;51.356;-2.906;2023-09-19T17:29:48;8.03;;;1.23;;
70369;SDS011;57790;51.356;-2.906;2023-09-19T17:32:49;6.87;;;1.00;;
70369;SDS011;57790;51.356;-2.906;2023-09-19T17:35:49;8.57;;;1.40;;
70369;SDS011;57790;51.356;-2.906;2023-09-19T17:38:51;6.10;;;1.15;;
70369;SDS011;57790;51.356;-2.906;2023-09-19T17:41:56;5.97;;;1.02;;
70369;SDS011;57790;51.356;-2.906;2023-09-19T17:44:57;4.13;;;0.80;;
70369;SDS011;57790;51.356;-2.906;2023-09-19T17:47:57;5.53;;;0.80;;
70369;SDS011;57790;51.356;-2.906;2023-09-19T17:51:02;4.32;;;0.77;;
70369;SDS011;57790;51.356;-2.906;2023-09-19T17:54:03;3.53;;;0.60;;
70369;SDS011;57790;51.356;-2.906;2023-09-19T17:57:04;3.92;;;0.85;;
70369;SDS011;57790;51.356;-2.906;2023-09-19T18:00:05;8.13;;;0.90;;
70369;SDS011;57790;51.356;-2.906;2023-09-19T18:03:08;3.22;;;0.63;;
70369;SDS011;57790;51.356;-2.906;2023-09-19T18:06:09;4.60;;;0.73;;
70369;SDS011;57790;51.356;-2.906;2023-09-19T18:09:10;4.65;;;0.85;;
70369;SDS011;57790;51.356;-2.906;2023-09-19T18:12:14;3.53;;;0.90;;
70369;SDS011;57790;51.356;-2.906;2023-09-19T18:15:14;2.28;;;0.60;;
70369;SDS011;57790;51.356;-2.906;2023-09-19T18:18:15;4.13;;;0.77;;
70369;SDS011;57790;51.356;-2.906;2023-09-19T18:21:16;6.00;;;1.23;;
70369;SDS011;57790;51.356;-2.906;2023-09-19T18:24:19;4.15;;;0.70;;
70369;SDS011;57790;51.356;-2.906;2023-09-19T18:27:20;5.97;;;1.07;;
70369;SDS011;57790;51.356;-2.906;2023-09-19T18:30:20;5.13;;;0.90;;
70369;SDS011;57790;51.356;-2.906;2023-09-19T18:33:21;5.95;;;1.00;;
70369;SDS011;57790;51.356;-2.906;2023-09-19T18:36:21;5.87;;;1.00;;
70369;SDS011;57790;51.356;-2.906;2023-09-19T18:39:22;4.33;;;0.77;;
70369;SDS011;57790;51.356;-2.906;2023-09-19T18:42:23;6.05;;;0.90;;